GCLP/LPA METAR and TAF weather

Enter ICAO airport designator
Station Type Date Time Source
GCLP METAR 2020/11/25 22:30 UTC NOAA

GCLP 252230Z 36011KT 9999 BKN030 18/14 Q1019 NOSIG


Station Type Date Time Source
GCLP Decoded METAR 2020/11/25 22:30 UTC NOAA

Gran Canaria - Canary Islands, Spain (GCLP) 27-56N 015-23W 47M
Nov 25, 2020 - 05:30 PM EST / 2020.11.25 2230 UTC
Wind: from the N (360 degrees) at 13 MPH (11 KT):0
Visibility: greater than 7 mile(s):0
Sky conditions: mostly cloudy
Temperature: 64 F (18 C)
Dew Point: 57 F (14 C)
Relative Humidity: 77%
Pressure (altimeter): 30.09 in. Hg (1019 hPa)
ob: GCLP 252230Z 36011KT 9999 BKN030 18/14 Q1019 NOSIG
cycle: 22

Station Type Date Time Source
GCLP TAF 2020/11/25 22:49 UTC NOAA

TAF
AMD GCLP 252237Z 2522/2621 36022KT 9999 BKN025 TX19/2614Z TN16/2607Z
TEMPO 2522/2524 36012KT PROB40
TEMPO 2523/2608 36024G34KT

Example: see airport list